createdAt,value
2018-02-14T00:00:07.683Z,9.20
2018-02-14T00:02:35.945Z,9.60
2018-02-14T00:05:04.212Z,8.77
2018-02-14T00:07:32.492Z,9.27
2018-02-14T00:10:00.760Z,10.00
2018-02-14T00:12:29.042Z,9.13
2018-02-14T00:14:57.464Z,9.40
2018-02-14T00:17:25.932Z,9.53
2018-02-14T00:19:54.185Z,8.17
2018-02-14T00:22:22.473Z,10.00
2018-02-14T00:24:50.744Z,10.30
2018-02-14T00:27:19.034Z,9.80
2018-02-14T00:29:47.299Z,8.27
2018-02-14T00:32:15.568Z,8.47
2018-02-14T00:34:43.851Z,9.20
2018-02-14T00:37:12.133Z,8.97
2018-02-14T00:39:40.428Z,9.13
2018-02-14T00:42:08.685Z,8.03
2018-02-14T00:44:36.995Z,9.33
2018-02-14T00:47:05.461Z,10.77
2018-02-14T00:49:33.732Z,9.00
2018-02-14T00:52:01.998Z,8.67
2018-02-14T00:54:30.267Z,8.13
2018-02-14T00:56:58.570Z,9.63
2018-02-14T00:59:26.892Z,8.47
2018-02-14T01:01:56.557Z,8.70
2018-02-14T01:04:24.855Z,8.73
2018-02-14T01:06:53.886Z,9.37
2018-02-14T01:09:22.914Z,8.40
2018-02-14T01:11:51.305Z,11.20
2018-02-14T01:14:19.568Z,10.40
2018-02-14T01:16:47.848Z,9.13
2018-02-14T01:19:16.908Z,9.20
2018-02-14T01:21:50.039Z,10.07
2018-02-14T01:24:18.294Z,10.90
2018-02-14T01:26:46.573Z,9.10
2018-02-14T01:29:14.844Z,10.10
2018-02-14T01:31:43.121Z,10.17
2018-02-14T01:34:11.388Z,9.30
2018-02-14T01:36:39.672Z,10.23
2018-02-14T01:39:07.939Z,9.10
2018-02-14T01:41:36.267Z,9.60
2018-02-14T01:44:04.515Z,9.70
2018-02-14T01:46:32.835Z,9.30
2018-02-14T01:49:02.598Z,9.27
2018-02-14T01:51:30.898Z,9.80
2018-02-14T01:53:59.152Z,9.03
2018-02-14T01:56:27.448Z,10.43
2018-02-14T01:58:55.752Z,9.33
2018-02-14T02:01:24.031Z,8.20
2018-02-14T02:03:52.438Z,8.50
2018-02-14T02:06:21.468Z,9.30
2018-02-14T02:08:49.752Z,10.43
2018-02-14T02:11:18.021Z,9.67
2018-02-14T02:13:46.333Z,10.60
2018-02-14T02:16:14.589Z,10.50
2018-02-14T02:18:42.874Z,9.90
2018-02-14T02:21:11.139Z,9.40
2018-02-14T02:23:39.435Z,8.70
2018-02-14T02:26:07.720Z,9.10
2018-02-14T02:28:36.024Z,8.30
2018-02-14T02:31:05.053Z,9.50
2018-02-14T02:33:33.367Z,9.40
2018-02-14T02:36:01.648Z,9.80
2018-02-14T02:38:30.020Z,9.27
2018-02-14T02:40:58.293Z,10.30
2018-02-14T02:43:26.569Z,9.60
2018-02-14T02:45:54.857Z,11.60
2018-02-14T02:48:23.137Z,9.90
2018-02-14T02:50:51.414Z,11.43
2018-02-14T02:53:19.672Z,9.97
2018-02-14T02:55:47.969Z,9.77
2018-02-14T02:58:16.252Z,10.00
2018-02-14T03:00:44.619Z,11.97
2018-02-14T03:03:13.176Z,10.33
2018-02-14T03:05:41.720Z,10.03
2018-02-14T03:08:10.008Z,11.17
2018-02-14T03:10:39.059Z,11.53
2018-02-14T03:13:07.348Z,9.53
2018-02-14T03:15:35.647Z,10.43
2018-02-14T03:18:03.923Z,10.73
2018-02-14T03:20:32.204Z,10.10
2018-02-14T03:23:01.241Z,10.97
2018-02-14T03:25:29.500Z,11.80
2018-02-14T03:27:57.912Z,10.60
2018-02-14T03:30:26.310Z,10.13
2018-02-14T03:32:54.688Z,10.87
2018-02-14T03:35:22.940Z,10.07
2018-02-14T03:37:51.241Z,10.43
2018-02-14T03:40:19.519Z,10.07
2018-02-14T03:42:47.808Z,9.77
2018-02-14T03:45:16.098Z,11.83
2018-02-14T03:47:44.371Z,10.67
2018-02-14T03:50:12.646Z,10.23
2018-02-14T03:52:40.928Z,9.80
2018-02-14T03:55:09.197Z,10.50
2018-02-14T03:57:37.478Z,10.03
2018-02-14T04:00:05.850Z,13.07
2018-02-14T04:02:34.131Z,11.67
2018-02-14T04:05:02.408Z,11.23
2018-02-14T04:07:30.674Z,9.90
2018-02-14T04:09:58.961Z,10.07
2018-02-14T04:12:27.327Z,12.10
2018-02-14T04:14:55.706Z,11.23
2018-02-14T04:17:23.987Z,10.03
2018-02-14T04:19:52.286Z,10.33
2018-02-14T04:22:20.550Z,9.47
2018-02-14T04:24:48.837Z,10.47
2018-02-14T04:27:17.095Z,10.50
2018-02-14T04:29:46.889Z,9.97
2018-02-14T04:32:15.284Z,11.60
2018-02-14T04:34:43.551Z,9.37
2018-02-14T04:37:11.827Z,10.57
2018-02-14T04:39:40.121Z,12.20
2018-02-14T04:42:08.494Z,9.97
2018-02-14T04:44:36.773Z,10.13
2018-02-14T04:47:05.068Z,10.80
2018-02-14T04:49:33.331Z,10.20
2018-02-14T04:52:01.602Z,9.67
2018-02-14T04:54:29.880Z,10.50
2018-02-14T04:56:58.241Z,10.17
2018-02-14T04:59:26.514Z,10.03
2018-02-14T05:01:54.830Z,9.90
2018-02-14T05:04:23.113Z,10.60
2018-02-14T05:06:51.396Z,10.10
2018-02-14T05:09:20.460Z,10.00
2018-02-14T05:11:48.858Z,10.93
2018-02-14T05:14:17.223Z,9.80
2018-02-14T05:16:45.499Z,12.17
2018-02-14T05:19:13.771Z,12.07
2018-02-14T05:21:42.052Z,10.57
2018-02-14T05:24:10.332Z,11.97
2018-02-14T05:26:38.625Z,9.77
2018-02-14T05:29:06.885Z,11.13
2018-02-14T05:31:35.176Z,11.73
2018-02-14T05:34:03.540Z,12.70
2018-02-14T05:36:31.835Z,13.40
2018-02-14T05:39:00.100Z,11.73
2018-02-14T05:41:28.475Z,11.67
2018-02-14T05:43:56.773Z,11.17
2018-02-14T05:46:25.024Z,11.73
2018-02-14T05:48:53.311Z,11.30
2018-02-14T05:51:21.599Z,12.17
2018-02-14T05:53:49.968Z,13.10
2018-02-14T05:56:18.409Z,12.10
2018-02-14T05:58:46.688Z,12.10
2018-02-14T06:01:15.722Z,12.47
2018-02-14T06:03:44.037Z,13.17
2018-02-14T06:06:12.338Z,12.87
2018-02-14T06:08:40.627Z,15.67
2018-02-14T06:11:08.908Z,15.00
2018-02-14T06:13:37.970Z,14.83
2018-02-14T06:16:06.272Z,14.80
2018-02-14T06:18:34.553Z,12.67
2018-02-14T06:21:02.864Z,13.30
2018-02-14T06:23:31.153Z,14.90
2018-02-14T06:26:00.004Z,11.83
2018-02-14T06:28:28.423Z,14.47
2018-02-14T06:30:56.744Z,15.50
2018-02-14T06:33:25.027Z,12.40
2018-02-14T06:35:53.304Z,14.80
2018-02-14T06:38:21.596Z,13.23
2018-02-14T06:40:50.651Z,13.00
2018-02-14T06:43:18.977Z,12.63
2018-02-14T06:45:48.028Z,13.17
2018-02-14T06:48:16.323Z,13.23
2018-02-14T06:50:44.802Z,12.47
2018-02-14T06:53:13.078Z,13.20
2018-02-14T06:55:41.364Z,13.90
2018-02-14T06:58:09.646Z,13.70
2018-02-14T07:00:37.960Z,12.10
2018-02-14T07:03:06.248Z,14.77
2018-02-14T07:05:34.544Z,14.23
2018-02-14T07:08:02.852Z,14.53
2018-02-14T07:10:31.232Z,14.53
2018-02-14T07:13:01.034Z,13.60
2018-02-14T07:15:29.345Z,15.13
2018-02-14T07:17:58.383Z,13.63
2018-02-14T07:20:26.672Z,15.43
2018-02-14T07:22:54.965Z,13.53
2018-02-14T07:25:23.258Z,15.13
2018-02-14T07:27:51.547Z,13.60
2018-02-14T07:30:20.616Z,14.40
2018-02-14T07:32:49.098Z,15.63
2018-02-14T07:35:17.381Z,14.90
2018-02-14T07:37:45.754Z,15.87
2018-02-14T07:40:14.057Z,15.10
2018-02-14T07:42:42.312Z,13.93
2018-02-14T07:45:10.672Z,16.97
2018-02-14T07:47:38.968Z,16.50
2018-02-14T07:50:07.266Z,15.27
2018-02-14T07:52:36.308Z,15.80
2018-02-14T07:55:04.568Z,16.27
2018-02-14T07:57:32.861Z,24.00
2018-02-14T08:00:01.125Z,19.87
2018-02-14T08:02:29.426Z,16.00
2018-02-14T08:04:57.700Z,15.57
2018-02-14T08:07:26.001Z,19.13
2018-02-14T08:09:54.280Z,15.17
2018-02-14T08:12:22.560Z,17.70
2018-02-14T08:14:50.933Z,18.40
2018-02-14T08:17:19.200Z,18.10
2018-02-14T08:19:47.476Z,17.20
2018-02-14T08:22:15.769Z,17.03
2018-02-14T08:24:44.042Z,18.00
2018-02-14T08:27:12.309Z,19.77
2018-02-14T08:29:40.597Z,25.17
2018-02-14T08:32:08.975Z,18.90
2018-02-14T08:34:37.258Z,18.53
2018-02-14T08:37:05.592Z,17.20
2018-02-14T08:39:33.876Z,15.90
2018-02-14T08:42:02.143Z,16.97
2018-02-14T08:44:30.429Z,21.57
2018-02-14T08:46:58.742Z,17.60
2018-02-14T08:49:27.052Z,16.30
2018-02-14T08:51:56.085Z,17.40
2018-02-14T08:54:24.389Z,16.17
2018-02-14T08:56:52.770Z,17.47
2018-02-14T08:59:21.055Z,17.87
2018-02-14T09:01:49.325Z,17.80
2018-02-14T09:04:17.611Z,17.70
2018-02-14T09:06:46.824Z,23.03
2018-02-14T09:09:15.897Z,15.80
2018-02-14T09:11:44.171Z,14.77
2018-02-14T09:14:12.553Z,15.20
2018-02-14T09:16:40.816Z,17.30
2018-02-14T09:19:09.082Z,15.40
2018-02-14T09:21:37.392Z,14.90
2018-02-14T09:24:05.652Z,14.87
2018-02-14T09:26:33.940Z,15.20
2018-02-14T09:29:02.227Z,14.77
2018-02-14T09:31:32.041Z,15.20
2018-02-14T09:34:00.312Z,13.40
2018-02-14T09:36:28.589Z,15.73
2018-02-14T09:38:57.652Z,15.70
2018-02-14T09:41:25.928Z,13.97
2018-02-14T09:43:54.234Z,15.57
2018-02-14T09:46:22.504Z,14.90
2018-02-14T09:48:50.772Z,14.70
2018-02-14T09:51:19.198Z,14.57
2018-02-14T09:53:48.227Z,14.60
2018-02-14T09:56:16.522Z,15.33
2018-02-14T09:58:44.783Z,15.40
2018-02-14T10:01:13.101Z,15.77
2018-02-14T10:03:41.486Z,13.70
2018-02-14T10:06:11.264Z,16.63
2018-02-14T10:08:39.565Z,14.30
2018-02-14T10:11:07.948Z,14.10
2018-02-14T10:13:36.327Z,16.30
2018-02-14T10:16:04.600Z,16.80
2018-02-14T10:18:32.881Z,14.23
2018-02-14T10:21:01.194Z,14.93
2018-02-14T10:23:30.271Z,14.63
2018-02-14T10:25:58.528Z,15.73
2018-02-14T10:28:26.925Z,15.13
2018-02-14T10:30:55.191Z,15.67
2018-02-14T10:33:23.488Z,15.60
2018-02-14T10:35:52.528Z,15.13
2018-02-14T10:38:20.828Z,15.80
2018-02-14T10:40:49.220Z,16.20
2018-02-14T10:43:18.276Z,13.30
2018-02-14T10:45:46.548Z,14.07
2018-02-14T10:48:14.951Z,12.53
2018-02-14T10:50:43.210Z,13.20
2018-02-14T10:53:11.481Z,14.47
2018-02-14T10:55:39.779Z,15.50
2018-02-14T10:58:08.065Z,14.50
2018-02-14T11:00:42.044Z,15.13
2018-02-14T11:03:16.118Z,15.37
2018-02-14T11:08:47.968Z,17.03
2018-02-14T11:11:16.260Z,15.53
2018-02-14T11:13:44.547Z,16.30
2018-02-14T11:16:12.808Z,15.80
2018-02-14T11:18:41.099Z,15.00
2018-02-14T11:21:09.554Z,15.07
2018-02-14T11:23:37.870Z,14.67
2018-02-14T11:26:07.506Z,14.63
2018-02-14T11:28:35.764Z,13.03
2018-02-14T11:31:04.181Z,12.30
2018-02-14T11:33:32.434Z,12.57
2018-02-14T11:36:00.855Z,12.63
2018-02-14T11:38:29.107Z,13.40
2018-02-14T11:40:57.407Z,14.20
2018-02-14T11:43:25.668Z,13.13
2018-02-14T11:45:54.066Z,14.10
2018-02-14T11:48:22.329Z,12.43
2018-02-14T11:50:50.624Z,14.40
2018-02-14T11:53:18.890Z,12.50
2018-02-14T11:55:47.200Z,14.47
2018-02-14T11:58:16.243Z,13.60
2018-02-14T12:00:44.506Z,14.30
2018-02-14T12:03:12.818Z,14.20
2018-02-14T12:05:41.722Z,13.80
2018-02-14T12:08:10.108Z,13.40
2018-02-14T12:10:38.385Z,13.80
2018-02-14T12:13:06.682Z,14.23
2018-02-14T12:15:35.717Z,13.73
2018-02-14T12:18:04.008Z,13.90
2018-02-14T12:20:32.272Z,9.47
2018-02-14T12:23:00.543Z,8.00
2018-02-14T12:25:28.805Z,7.00
2018-02-14T12:27:57.085Z,7.37
2018-02-14T12:30:25.414Z,5.43
2018-02-14T12:32:53.668Z,5.27
2018-02-14T12:35:21.931Z,7.23
2018-02-14T12:37:50.342Z,7.00
2018-02-14T12:40:18.616Z,7.10
2018-02-14T12:42:46.900Z,7.03
2018-02-14T12:45:15.172Z,7.77
2018-02-14T12:47:43.444Z,8.87
2018-02-14T12:50:11.729Z,6.60
2018-02-14T12:52:40.017Z,5.97
2018-02-14T12:55:08.347Z,6.47
2018-02-14T12:57:36.705Z,6.50
2018-02-14T13:00:05.768Z,7.00
2018-02-14T13:02:34.137Z,7.17
2018-02-14T13:05:02.415Z,7.77
2018-02-14T13:07:30.667Z,8.20
2018-02-14T13:09:59.070Z,9.13
2018-02-14T13:12:27.319Z,9.27
2018-02-14T13:14:55.628Z,9.27
2018-02-14T13:17:23.897Z,7.70
2018-02-14T13:19:52.384Z,8.00
2018-02-14T13:22:20.658Z,8.33
2018-02-14T13:24:49.040Z,7.70
2018-02-14T13:27:17.303Z,9.97
2018-02-14T13:29:45.592Z,7.80
2018-02-14T13:32:13.971Z,7.47
2018-02-14T13:34:42.353Z,8.90
2018-02-14T13:37:10.732Z,10.47
2018-02-14T13:39:39.111Z,10.80
2018-02-14T13:42:07.378Z,9.83
2018-02-14T13:44:35.660Z,9.10
2018-02-14T13:47:03.943Z,9.80
2018-02-14T13:49:32.190Z,10.13
2018-02-14T13:52:00.508Z,10.77
2018-02-14T13:54:29.596Z,12.77
2018-02-14T13:56:57.974Z,10.50
2018-02-14T13:59:26.280Z,10.60
2018-02-14T14:01:55.336Z,8.20
2018-02-14T14:04:23.595Z,7.87
2018-02-14T14:06:51.856Z,8.27
2018-02-14T14:09:20.123Z,9.27
2018-02-14T14:11:49.181Z,8.40
2018-02-14T14:14:17.461Z,8.57
2018-02-14T14:16:45.716Z,6.87
2018-02-14T14:19:14.106Z,7.27
2018-02-14T14:21:42.364Z,6.93
2018-02-14T14:24:10.644Z,7.80
2018-02-14T14:26:38.895Z,7.67
2018-02-14T14:29:07.182Z,8.17
2018-02-14T14:31:35.446Z,6.33
2018-02-14T14:34:03.772Z,6.90
2018-02-14T14:36:32.053Z,6.17
2018-02-14T14:39:00.357Z,7.17
2018-02-14T14:41:29.384Z,7.60
2018-02-14T14:43:57.689Z,8.90
2018-02-14T14:46:25.974Z,9.60
2018-02-14T14:48:54.245Z,9.60
2018-02-14T14:51:22.572Z,10.10
2018-02-14T14:53:51.628Z,9.50
2018-02-14T14:56:19.930Z,9.90
2018-02-14T14:58:48.976Z,11.27
2018-02-14T15:01:17.260Z,10.63
2018-02-14T15:03:45.551Z,10.60
2018-02-14T15:06:13.840Z,12.50
2018-02-14T15:08:42.113Z,12.70
2018-02-14T15:11:10.400Z,12.67
2018-02-14T15:13:38.695Z,11.90
2018-02-14T15:16:07.889Z,11.50
2018-02-14T15:18:36.932Z,12.03
2018-02-14T15:21:05.224Z,11.27
2018-02-14T15:23:33.502Z,12.57
2018-02-14T15:26:01.902Z,10.53
2018-02-14T15:28:30.269Z,11.20
2018-02-14T15:30:58.583Z,13.20
2018-02-14T15:33:26.852Z,10.83
2018-02-14T15:35:55.887Z,10.30
2018-02-14T15:38:24.238Z,11.10
2018-02-14T15:40:53.276Z,10.20
2018-02-14T15:43:21.676Z,10.23
2018-02-14T15:45:49.948Z,10.50
2018-02-14T15:48:18.236Z,10.60
2018-02-14T15:50:48.022Z,9.93
2018-02-14T15:53:16.326Z,10.90
2018-02-14T15:55:45.514Z,11.80
2018-02-14T15:58:13.791Z,10.13
2018-02-14T16:00:42.066Z,10.33
2018-02-14T16:03:10.343Z,11.07
2018-02-14T16:05:38.728Z,11.57
2018-02-14T16:08:07.103Z,13.50
2018-02-14T16:10:35.482Z,16.40
2018-02-14T16:13:03.765Z,15.20
2018-02-14T16:15:32.060Z,15.03
2018-02-14T16:18:01.103Z,17.80
2018-02-14T16:20:29.395Z,17.47
2018-02-14T16:22:57.668Z,17.27
2018-02-14T16:25:25.963Z,17.27
2018-02-14T16:27:54.240Z,17.30
2018-02-14T16:30:22.526Z,17.40
2018-02-14T16:32:50.820Z,16.97
2018-02-14T16:35:19.872Z,16.10
2018-02-14T16:37:48.179Z,14.90
2018-02-14T16:40:16.549Z,17.77
2018-02-14T16:42:44.931Z,15.80
2018-02-14T16:45:13.220Z,16.70
2018-02-14T16:47:41.591Z,15.60
2018-02-14T16:50:09.856Z,17.83
2018-02-14T16:52:38.151Z,17.07
2018-02-14T16:55:06.427Z,18.17
2018-02-14T16:57:34.707Z,17.53
2018-02-14T17:00:03.003Z,18.87
2018-02-14T17:02:32.061Z,16.73
2018-02-14T17:05:00.953Z,19.63
2018-02-14T17:07:29.260Z,18.80
2018-02-14T17:09:57.613Z,15.80
2018-02-14T17:12:25.904Z,19.90
2018-02-14T17:14:54.270Z,18.50
2018-02-14T17:17:22.552Z,19.93
2018-02-14T17:19:50.826Z,19.17
2018-02-14T17:22:19.089Z,19.37
2018-02-14T17:24:47.416Z,20.57
2018-02-14T17:27:16.454Z,20.17
2018-02-14T17:29:44.746Z,19.77
2018-02-14T17:32:13.033Z,20.17
2018-02-14T17:34:41.370Z,20.83
2018-02-14T17:37:10.381Z,20.70
2018-02-14T17:39:38.695Z,20.77
2018-02-14T17:42:07.058Z,20.60
2018-02-14T17:44:35.327Z,20.50
2018-02-14T17:47:03.618Z,21.47
2018-02-14T17:49:31.990Z,21.23
2018-02-14T17:52:00.272Z,22.73
2018-02-14T17:54:28.560Z,21.77
2018-02-14T17:56:56.828Z,21.50
2018-02-14T17:59:25.115Z,21.63
2018-02-14T18:01:53.408Z,23.00
2018-02-14T18:04:21.678Z,24.80
2018-02-14T18:06:49.973Z,21.23
2018-02-14T18:09:19.030Z,21.83
2018-02-14T18:11:47.616Z,23.77
2018-02-14T18:14:15.881Z,23.10
2018-02-14T18:16:44.176Z,24.00
2018-02-14T18:19:12.497Z,22.10
2018-02-14T18:21:41.544Z,20.30
2018-02-14T18:24:09.811Z,24.03
2018-02-14T18:26:38.114Z,23.40
2018-02-14T18:29:07.150Z,26.10
2018-02-14T18:31:35.547Z,24.00
2018-02-14T18:34:03.858Z,23.70
2018-02-14T18:36:32.144Z,24.57
2018-02-14T18:39:00.412Z,25.30
2018-02-14T18:41:28.712Z,23.37
2018-02-14T18:43:57.835Z,24.37
2018-02-14T18:46:26.123Z,23.87
2018-02-14T18:48:54.416Z,19.90
2018-02-14T18:51:22.725Z,23.83
2018-02-14T18:53:51.010Z,23.83
2018-02-14T18:56:19.279Z,22.87
2018-02-14T18:58:47.648Z,21.43
2018-02-14T19:01:16.024Z,20.97
2018-02-14T19:03:44.315Z,22.00
2018-02-14T19:06:12.601Z,21.00
2018-02-14T19:08:42.407Z,21.70
2018-02-14T19:11:10.685Z,20.60
2018-02-14T19:13:39.048Z,21.37
2018-02-14T19:16:07.308Z,22.20
2018-02-14T19:18:35.641Z,21.03
2018-02-14T19:21:04.698Z,23.23
2018-02-14T19:23:32.992Z,21.00
2018-02-14T19:26:01.284Z,21.50
2018-02-14T19:28:30.321Z,21.87
2018-02-14T19:30:58.882Z,20.80
2018-02-14T19:33:27.352Z,20.77
2018-02-14T19:35:56.467Z,19.47
2018-02-14T19:38:24.736Z,20.10
2018-02-14T19:40:53.029Z,21.00
2018-02-14T19:43:21.445Z,17.40
2018-02-14T19:45:49.787Z,18.90
2018-02-14T19:48:18.086Z,21.00
2018-02-14T19:50:46.396Z,22.40
2018-02-14T19:53:14.677Z,20.33
2018-02-14T19:55:43.013Z,20.57
2018-02-14T19:58:11.289Z,21.97
2018-02-14T20:00:39.568Z,21.37
2018-02-14T20:03:07.861Z,21.97
2018-02-14T20:05:36.244Z,21.90
2018-02-14T20:08:04.526Z,22.57
2018-02-14T20:10:32.799Z,23.57
2018-02-14T20:13:01.108Z,22.97
2018-02-14T20:15:30.144Z,26.90
2018-02-14T20:17:58.446Z,24.53
2018-02-14T20:20:26.728Z,24.10
2018-02-14T20:22:55.016Z,24.23
2018-02-14T20:25:23.284Z,21.27
2018-02-14T20:27:51.604Z,20.13
2018-02-14T20:30:19.887Z,22.57
2018-02-14T20:32:48.180Z,21.97
2018-02-14T20:35:16.461Z,19.90
2018-02-14T20:37:44.760Z,22.37
2018-02-14T20:40:13.076Z,24.90
2018-02-14T20:42:41.348Z,22.07
2018-02-14T20:45:10.415Z,20.87
2018-02-14T20:47:38.680Z,20.60
2018-02-14T20:50:07.028Z,22.30
2018-02-14T20:52:35.319Z,21.70
2018-02-14T20:55:03.616Z,21.80
2018-02-14T20:57:31.929Z,20.67
2018-02-14T21:05:08.321Z,23.50
2018-02-14T21:07:36.618Z,24.30
2018-02-14T21:10:04.960Z,22.03
2018-02-14T21:12:33.349Z,22.97
2018-02-14T21:15:01.757Z,23.00
2018-02-14T21:17:30.828Z,22.60
2018-02-14T21:19:59.167Z,22.90
2018-02-14T21:22:27.586Z,23.00
2018-02-14T21:24:55.886Z,21.00
2018-02-14T21:27:24.219Z,23.90
2018-02-14T21:29:52.540Z,23.53
2018-02-14T21:32:21.631Z,21.17
2018-02-14T21:34:50.447Z,21.13
2018-02-14T21:37:18.799Z,20.40
2018-02-14T21:39:47.107Z,22.70
2018-02-14T21:42:16.181Z,29.17
2018-02-14T21:44:44.535Z,26.40
2018-02-14T21:47:12.848Z,26.63
2018-02-14T21:49:41.913Z,23.37
2018-02-14T21:52:10.220Z,21.83
2018-02-14T21:54:39.285Z,22.87
2018-02-14T21:57:07.599Z,22.90
2018-02-14T21:59:36.668Z,22.10
2018-02-14T22:02:04.977Z,21.10
2018-02-14T22:04:34.038Z,21.37
2018-02-14T22:07:03.146Z,24.90
2018-02-14T22:09:31.429Z,24.23
2018-02-14T22:11:59.735Z,22.10
2018-02-14T22:14:28.083Z,23.30
2018-02-14T22:16:56.367Z,23.77
2018-02-14T22:19:25.459Z,18.67
2018-02-14T22:21:54.629Z,21.23
2018-02-14T22:24:22.931Z,20.93
2018-02-14T22:26:52.314Z,22.70
2018-02-14T22:29:20.615Z,22.20
2018-02-14T22:31:49.683Z,22.60
2018-02-14T22:34:17.987Z,23.40
2018-02-14T22:36:47.061Z,22.77
2018-02-14T22:39:15.395Z,21.90
2018-02-14T22:41:43.692Z,21.07
2018-02-14T22:44:12.000Z,21.10
2018-02-14T22:46:40.314Z,20.80
2018-02-14T22:49:09.392Z,19.73
2018-02-14T22:51:38.295Z,20.37
2018-02-14T22:54:07.495Z,17.80
2018-02-14T22:56:36.656Z,20.43
2018-02-14T22:59:04.956Z,18.90
2018-02-14T23:01:33.344Z,20.00
2018-02-14T23:04:01.716Z,22.30
2018-02-14T23:06:30.099Z,18.40
2018-02-14T23:08:59.173Z,19.83
2018-02-14T23:11:27.499Z,18.37
2018-02-14T23:13:55.802Z,18.47
2018-02-14T23:16:24.117Z,16.50
2018-02-14T23:18:52.455Z,16.77
2018-02-14T23:21:20.741Z,18.63
2018-02-14T23:23:49.047Z,18.53
2018-02-14T23:26:17.361Z,17.87
2018-02-14T23:28:45.648Z,17.83
2018-02-14T23:31:13.951Z,16.80
2018-02-14T23:33:42.248Z,17.60
2018-02-14T23:36:10.543Z,16.17
2018-02-14T23:38:38.826Z,18.00
2018-02-14T23:41:07.928Z,16.37
2018-02-14T23:43:36.975Z,16.10
2018-02-14T23:46:05.269Z,17.30
2018-02-14T23:48:33.577Z,15.67
2018-02-14T23:51:01.872Z,17.90
2018-02-14T23:53:30.296Z,17.50
2018-02-14T23:55:58.587Z,15.67
2018-02-14T23:58:26.896Z,16.47
